Time;durP1;ratioP1;P1;durP2;ratioP2;P2;SDS_P1;SDS_P2;PMS_P1;PMS_P2;Temp;Humidity;BMP_temperature;BMP_pressure;BME280_temperature;BME280_humidity;BME280_pressure;Samples;Min_cycle;Max_cycle;Signal;HPM_P1;HPM_P2
2022/03/28 00:00:36;;;;;;;27.65;18.13;;;;;;;11.47;69.16;100760.03;4892266;29;20801;-93
2022/03/28 00:03:02;;;;;;;25.90;18.35;;;;;;;11.49;68.83;100758.94;4894512;29;20028;-93
2022/03/28 00:05:28;;;;;;;28.90;18.15;;;;;;;11.46;69.14;100761.00;4909960;29;20168;-92
2022/03/28 00:07:53;;;;;;;24.85;17.10;;;;;;;11.49;69.24;100758.09;4893463;29;20509;-92
2022/03/28 00:10:19;;;;;;;25.30;17.67;;;;;;;11.46;69.49;100766.38;4891896;29;20062;-93
2022/03/28 00:12:45;;;;;;;27.20;17.52;;;;;;;11.44;69.49;100749.56;4894803;29;20046;-93
2022/03/28 00:15:10;;;;;;;25.08;16.58;;;;;;;11.46;68.95;100758.34;4893405;29;20692;-92
2022/03/28 00:17:36;;;;;;;23.77;15.85;;;;;;;11.48;69.07;100762.59;4893024;29;20040;-93
2022/03/28 00:20:06;;;;;;;22.25;15.00;;;;;;;11.45;69.31;100762.00;4894772;29;20036;-92
2022/03/28 00:22:31;;;;;;;24.35;14.77;;;;;;;11.36;69.73;100763.59;4908365;29;20036;-92
2022/03/28 00:24:56;;;;;;;24.45;15.40;;;;;;;11.33;69.25;100758.44;4893080;29;20244;-93
2022/03/28 00:27:27;;;;;;;25.58;16.05;;;;;;;11.27;69.17;100753.56;4892224;29;20390;-93
2022/03/28 00:29:53;;;;;;;24.38;15.30;;;;;;;11.28;68.93;100750.78;4897250;29;20202;-92
2022/03/28 00:32:18;;;;;;;21.23;14.70;;;;;;;11.20;69.25;100742.50;4900160;29;20091;-92
2022/03/28 00:34:44;;;;;;;20.42;14.13;;;;;;;11.24;69.33;100743.13;4895330;29;20035;-93
2022/03/28 00:37:10;;;;;;;20.38;13.85;;;;;;;11.29;69.34;100738.25;4897271;29;20836;-92
2022/03/28 00:39:36;;;;;;;23.83;14.10;;;;;;;11.29;69.38;100732.88;4902834;29;20028;-93
2022/03/28 00:42:01;;;;;;;23.30;14.45;;;;;;;11.30;69.40;100734.59;4904164;29;20035;-93
2022/03/28 00:44:29;;;;;;;23.67;14.32;;;;;;;11.27;69.05;100724.97;4902772;29;20058;-93
2022/03/28 00:46:55;;;;;;;21.25;14.45;;;;;;;11.20;69.58;100720.25;4902686;29;20040;-92
2022/03/28 00:49:20;;;;;;;22.90;14.80;;;;;;;11.17;69.54;100723.16;4904310;29;20038;-92
2022/03/28 00:51:45;;;;;;;24.38;15.68;;;;;;;11.16;69.64;100722.31;4901860;29;20031;-93
2022/03/28 00:54:11;;;;;;;24.83;15.93;;;;;;;11.15;69.25;100714.41;4901442;29;20046;-93
2022/03/28 00:56:37;;;;;;;28.85;17.17;;;;;;;11.08;69.72;100713.19;4900925;29;20082;-92
2022/03/28 00:59:04;;;;;;;25.52;15.85;;;;;;;11.09;69.71;100707.72;4917375;29;20061;-92
2022/03/28 01:01:30;;;;;;;24.80;16.40;;;;;;;11.09;69.61;100699.69;4901311;29;20483;-93
2022/03/28 01:03:56;;;;;;;22.77;15.55;;;;;;;11.08;69.75;100699.81;4902017;29;20120;-93
2022/03/28 01:06:22;;;;;;;23.50;15.73;;;;;;;11.09;69.54;100702.38;4901305;29;20043;-92
2022/03/28 01:08:48;;;;;;;26.25;15.40;;;;;;;11.09;69.67;100696.16;4901888;29;20027;-93
2022/03/28 01:11:13;;;;;;;21.58;13.88;;;;;;;11.14;69.39;100694.81;4901733;29;20142;-93
2022/03/28 01:13:40;;;;;;;21.05;14.25;;;;;;;11.15;69.62;100693.00;4901531;29;20110;-92
2022/03/28 01:16:06;;;;;;;22.10;14.48;;;;;;;11.10;69.46;100689.84;4901947;29;20023;-93
2022/03/28 01:18:32;;;;;;;21.08;13.35;;;;;;;11.07;69.81;100687.41;4917587;29;20046;-92
2022/03/28 01:20:58;;;;;;;20.13;13.18;;;;;;;11.00;69.77;100687.91;4901119;29;20035;-93
2022/03/28 01:23:24;;;;;;;21.92;13.77;;;;;;;10.98;69.69;100686.31;4902678;29;20063;-92
2022/03/28 01:25:53;;;;;;;21.95;14.60;;;;;;;10.88;69.64;100688.88;4902198;29;20027;-93
2022/03/28 01:28:20;;;;;;;19.85;13.02;;;;;;;10.86;69.31;100684.59;4900962;29;20058;-93
2022/03/28 01:30:46;;;;;;;20.45;13.07;;;;;;;10.83;69.55;100680.34;4900602;29;20110;-93
2022/03/28 01:33:12;;;;;;;20.13;13.73;;;;;;;10.79;69.40;100683.38;4900707;29;20614;-92
2022/03/28 01:35:39;;;;;;;20.98;13.25;;;;;;;10.80;69.57;100674.38;4905162;29;20024;-93
2022/03/28 01:38:06;;;;;;;19.92;13.00;;;;;;;10.82;69.34;100675.13;4903194;29;20058;-93
2022/03/28 01:40:33;;;;;;;19.13;12.90;;;;;;;10.82;69.10;100670.63;4905819;29;20027;-93
2022/03/28 01:42:59;;;;;;;19.10;12.95;;;;;;;10.79;69.03;100665.50;4902009;29;20702;-93
2022/03/28 01:45:25;;;;;;;19.25;12.60;;;;;;;10.77;68.95;100670.13;4901230;29;20028;-91
2022/03/28 01:47:50;;;;;;;22.60;13.20;;;;;;;10.76;69.00;100665.75;4900831;29;20965;-93
2022/03/28 01:50:16;;;;;;;18.63;12.23;;;;;;;10.72;68.56;100665.16;4900344;29;20067;-92
2022/03/28 01:52:42;;;;;;;19.60;12.27;;;;;;;10.71;68.79;100659.91;4900388;29;20035;-93
2022/03/28 01:55:09;;;;;;;18.17;12.63;;;;;;;10.69;68.91;100657.38;4901536;29;20115;-91
2022/03/28 01:57:36;;;;;;;19.90;12.75;;;;;;;10.75;68.63;100661.38;4915537;29;20564;-92
2022/03/28 02:00:01;;;;;;;20.00;12.60;;;;;;;10.70;69.35;100659.06;4901007;29;20062;-92
2022/03/28 02:02:27;;;;;;;19.13;12.05;;;;;;;10.69;69.26;100659.19;4900900;29;20063;-93
2022/03/28 02:04:52;;;;;;;19.38;12.52;;;;;;;10.71;69.04;100660.78;4900019;29;20053;-93
2022/03/28 02:07:17;;;;;;;18.17;12.05;;;;;;;10.68;69.12;100661.00;4900525;29;20032;-91
2022/03/28 02:09:43;;;;;;;18.30;12.98;;;;;;;10.69;69.25;100653.84;4900978;29;20122;-93
2022/03/28 02:12:09;;;;;;;18.02;12.15;;;;;;;10.68;68.98;100661.00;4900339;29;20555;-93
2022/03/28 02:14:34;;;;;;;18.23;11.90;;;;;;;10.65;68.69;100655.06;4915688;29;20046;-93
2022/03/28 02:17:00;;;;;;;17.50;11.63;;;;;;;10.61;68.98;100649.09;4900622;29;20039;-93
2022/03/28 02:19:25;;;;;;;17.33;12.32;;;;;;;10.61;69.02;100656.28;4900981;29;20114;-93
2022/03/28 02:21:50;;;;;;;18.52;11.98;;;;;;;10.58;69.04;100653.84;4901829;29;20035;-93
2022/03/28 02:24:16;;;;;;;20.08;12.65;;;;;;;10.61;68.59;100654.44;4900230;29;20035;-93
2022/03/28 02:26:41;;;;;;;19.15;11.68;;;;;;;10.64;68.63;100658.69;4900146;29;20031;-93
2022/03/28 02:29:06;;;;;;;17.23;11.98;;;;;;;10.64;68.64;100653.34;4900380;29;20023;-93
2022/03/28 02:31:32;;;;;;;18.60;12.75;;;;;;;10.63;68.96;100644.47;4900106;29;20086;-92
2022/03/28 02:33:57;;;;;;;19.63;13.05;;;;;;;10.62;68.82;100649.94;4900737;29;20867;-93
2022/03/28 02:36:23;;;;;;;18.48;12.65;;;;;;;10.57;69.13;100650.31;4902170;29;20046;-92
2022/03/28 02:38:48;;;;;;;19.38;12.35;;;;;;;10.49;69.23;100643.88;4903811;29;20043;-93
2022/03/28 02:41:13;;;;;;;18.92;12.10;;;;;;;10.51;69.15;100640.09;4903028;29;20034;-92
2022/03/28 02:43:39;;;;;;;18.27;12.27;;;;;;;10.60;68.45;100631.34;4903033;29;20039;-92
2022/03/28 02:46:04;;;;;;;19.52;12.73;;;;;;;10.59;68.25;100626.13;4901766;29;20052;-93
2022/03/28 02:48:30;;;;;;;17.15;12.15;;;;;;;10.63;68.27;100631.09;4901987;29;20035;-93
2022/03/28 02:50:56;;;;;;;17.88;11.95;;;;;;;10.55;68.18;100619.31;4901618;29;20032;-93
2022/03/28 02:53:21;;;;;;;17.30;12.15;;;;;;;10.48;67.81;100613.59;4899983;29;20757;-93
2022/03/28 02:55:47;;;;;;;19.55;12.15;;;;;;;10.44;68.00;100613.97;4900280;29;20478;-92
2022/03/28 02:58:12;;;;;;;17.02;11.50;;;;;;;10.43;67.91;100606.91;4900592;29;20039;-92
2022/03/28 03:00:38;;;;;;;17.45;11.63;;;;;;;10.48;68.17;100610.06;4903520;29;20039;-92
2022/03/28 03:03:03;;;;;;;16.35;11.32;;;;;;;10.53;68.11;100603.38;4899910;29;20036;-92
2022/03/28 03:05:28;;;;;;;16.45;11.00;;;;;;;10.52;67.88;100607.03;4917836;29;20036;-92
2022/03/28 03:07:54;;;;;;;18.25;11.43;;;;;;;10.42;67.98;100599.88;4901584;29;20079;-93
2022/03/28 03:10:19;;;;;;;17.42;11.73;;;;;;;10.45;67.86;100596.94;4905228;29;20382;-92
2022/03/28 03:12:44;;;;;;;16.95;11.38;;;;;;;10.50;67.59;100594.75;4908727;29;20063;-92
2022/03/28 03:15:10;;;;;;;17.55;11.63;;;;;;;10.48;67.94;100597.56;4907415;29;20020;-92
2022/03/28 03:17:36;;;;;;;17.65;11.93;;;;;;;10.40;67.88;100591.94;4905822;29;20037;-93
2022/03/28 03:20:05;;;;;;;15.73;11.07;;;;;;;10.32;68.09;100591.69;4906962;29;20121;-93
2022/03/28 03:22:31;;;;;;;16.75;10.90;;;;;;;10.29;68.60;100597.28;4924031;29;20027;-93
2022/03/28 03:24:56;;;;;;;17.70;11.15;;;;;;;10.25;68.20;100588.66;4908053;29;20086;-93
2022/03/28 03:27:22;;;;;;;16.20;11.13;;;;;;;10.25;68.18;100577.13;4906139;29;20448;-93
2022/03/28 03:29:47;;;;;;;17.88;10.82;;;;;;;10.26;68.34;100585.00;4904838;29;20145;-93
2022/03/28 03:32:13;;;;;;;17.75;11.68;;;;;;;10.22;68.35;100580.88;4906017;29;20050;-92
2022/03/28 03:34:39;;;;;;;16.90;11.50;;;;;;;10.19;68.59;100581.09;4907029;29;20126;-92
2022/03/28 03:37:05;;;;;;;16.20;10.77;;;;;;;10.18;68.84;100582.06;4905872;29;20055;-92
2022/03/28 03:39:30;;;;;;;17.13;11.38;;;;;;;10.19;68.84;100578.41;4909311;29;20045;-93
2022/03/28 03:41:55;;;;;;;16.60;11.45;;;;;;;10.19;69.05;100575.75;4906512;29;20035;-93
2022/03/28 03:44:21;;;;;;;18.85;11.98;;;;;;;10.14;69.02;100569.91;4906304;29;20134;-92
2022/03/28 03:46:47;;;;;;;17.80;11.13;;;;;;;10.13;69.04;100564.69;4905151;29;20039;-93
2022/03/28 03:49:12;;;;;;;18.00;11.27;;;;;;;10.09;69.31;100569.41;4922150;29;20032;-92
2022/03/28 03:51:38;;;;;;;18.48;11.85;;;;;;;10.06;69.44;100575.00;4906561;29;20053;-93
2022/03/28 03:54:03;;;;;;;19.17;11.68;;;;;;;10.07;69.26;100563.34;4922909;29;20103;-93
2022/03/28 03:56:29;;;;;;;17.08;10.90;;;;;;;10.00;68.72;100568.31;4906444;29;20374;-92
2022/03/28 03:58:56;;;;;;;17.50;11.45;;;;;;;10.05;68.68;100559.94;4904901;29;20027;-93
2022/03/28 04:01:21;;;;;;;16.38;11.18;;;;;;;9.98;69.18;100562.25;4922587;29;20408;-93
2022/03/28 04:03:47;;;;;;;16.88;11.00;;;;;;;9.96;68.89;100569.53;4910412;29;20122;-93
2022/03/28 04:06:12;;;;;;;20.63;11.82;;;;;;;9.96;69.33;100560.66;4909623;29;20043;-92
2022/03/28 04:08:38;;;;;;;17.63;11.30;;;;;;;9.93;69.19;100563.53;4909661;29;20107;-93
2022/03/28 04:11:04;;;;;;;18.65;11.65;;;;;;;9.92;69.08;100552.00;4905373;29;20032;-92
2022/03/28 04:13:31;;;;;;;16.45;11.40;;;;;;;9.96;69.12;100560.66;4905811;29;20119;-93
2022/03/28 04:15:57;;;;;;;18.52;12.13;;;;;;;9.93;69.06;100563.53;4905564;29;20122;-93
2022/03/28 04:18:25;;;;;;;20.73;13.25;;;;;;;9.93;69.21;100556.41;4906721;29;20138;-92
2022/03/28 04:20:51;;;;;;;17.67;12.07;;;;;;;9.93;68.97;100553.72;4902244;29;20433;-93
2022/03/28 04:23:16;;;;;;;17.90;12.00;;;;;;;9.89;69.42;100554.06;4903954;29;20095;-94
2022/03/28 04:25:42;;;;;;;18.42;12.18;;;;;;;9.88;69.31;100563.03;4901081;29;20366;-93
2022/03/28 04:28:07;;;;;;;18.90;12.05;;;;;;;9.88;69.10;100560.38;4901870;29;20059;-93
2022/03/28 04:30:33;;;;;;;17.35;11.07;;;;;;;9.87;69.26;100561.34;4904403;29;20038;-93
2022/03/28 04:32:58;;;;;;;18.80;11.57;;;;;;;9.77;69.30;100566.53;4902438;29;20049;-93
2022/03/28 04:35:23;;;;;;;16.55;11.25;;;;;;;9.71;68.97;100559.84;4902704;29;20060;-93
2022/03/28 04:37:49;;;;;;;15.63;11.20;;;;;;;9.74;68.63;100562.28;4901519;29;20207;-93
2022/03/28 04:40:17;;;;;;;19.95;11.52;;;;;;;9.69;68.74;100559.13;4902315;29;20118;-92
2022/03/28 04:42:43;;;;;;;17.60;11.77;;;;;;;9.73;68.52;100552.59;4902863;29;20046;-92
2022/03/28 04:45:09;;;;;;;19.13;12.98;;;;;;;9.84;68.63;100556.25;4905832;29;20043;-92
2022/03/28 04:47:35;;;;;;;23.02;16.98;;;;;;;9.81;68.74;100551.13;4901550;29;20028;-93
2022/03/28 04:50:01;;;;;;;18.20;12.95;;;;;;;9.78;68.74;100550.41;4919203;29;20043;-93
2022/03/28 04:52:26;;;;;;;18.15;11.65;;;;;;;9.74;69.04;100551.63;4903000;29;20027;-93
2022/03/28 04:54:52;;;;;;;19.02;12.35;;;;;;;9.72;68.98;100550.88;4903819;29;20023;-92
2022/03/28 04:57:17;;;;;;;18.83;12.20;;;;;;;9.69;69.25;100553.78;4902796;29;20027;-92
2022/03/28 04:59:43;;;;;;;18.52;11.57;;;;;;;9.72;69.18;100550.88;4902063;29;20035;-93
2022/03/28 05:02:08;;;;;;;17.02;11.80;;;;;;;9.69;69.07;100552.94;4902529;29;20481;-93
2022/03/28 05:04:34;;;;;;;16.40;11.30;;;;;;;9.64;69.09;100549.78;4901472;29;20055;-92
2022/03/28 05:07:00;;;;;;;17.40;11.48;;;;;;;9.64;69.55;100555.97;4901171;29;20043;-93
2022/03/28 05:09:25;;;;;;;18.52;11.48;;;;;;;9.61;69.32;100550.84;4901300;29;20032;-93
2022/03/28 05:11:50;;;;;;;16.63;10.85;;;;;;;9.60;69.44;100548.31;4902389;29;20038;-92
2022/03/28 05:14:18;;;;;;;17.58;10.95;;;;;;;9.65;69.18;100556.81;4910640;29;20112;-91
2022/03/28 05:16:43;;;;;;;16.70;11.43;;;;;;;9.61;69.47;100556.19;4918866;29;20150;-92
2022/03/28 05:19:08;;;;;;;18.58;11.60;;;;;;;9.52;69.23;100543.56;4901441;29;20059;-92
2022/03/28 05:21:34;;;;;;;18.85;11.73;;;;;;;9.53;69.05;100544.41;4901058;29;20036;-93
2022/03/28 05:23:59;;;;;;;20.15;12.25;;;;;;;9.54;69.42;100549.63;4901147;29;20118;-92
2022/03/28 05:26:26;;;;;;;18.10;11.68;;;;;;;9.53;69.39;100547.91;4901299;29;20055;-93
2022/03/28 05:28:52;;;;;;;17.80;11.45;;;;;;;9.46;69.89;100547.53;4903070;29;20023;-93
2022/03/28 05:31:17;;;;;;;17.75;11.70;;;;;;;9.53;69.34;100547.06;4904388;29;20039;-89
2022/03/28 05:33:42;;;;;;;17.20;11.50;;;;;;;9.54;68.97;100546.09;4920738;28;20036;-90
2022/03/28 05:36:08;;;;;;;20.88;15.45;;;;;;;9.53;69.53;100547.91;4938010;28;20091;-90
2022/03/28 05:38:36;;;;;;;18.23;11.60;;;;;;;9.49;69.51;100548.28;4920743;28;20052;-92
2022/03/28 05:41:05;;;;;;;18.33;11.80;;;;;;;9.49;69.37;100546.47;4906776;29;20030;-92
2022/03/28 05:43:31;;;;;;;20.58;12.18;;;;;;;9.54;69.70;100551.44;4906451;29;20409;-91
2022/03/28 05:45:56;;;;;;;16.42;10.88;;;;;;;9.57;69.35;100543.19;4921379;29;20036;-91
2022/03/28 05:48:22;;;;;;;15.63;11.15;;;;;;;9.58;69.56;100540.41;4906138;29;20044;-91
2022/03/28 05:50:49;;;;;;;18.13;11.82;;;;;;;9.64;69.08;100545.28;4905459;29;20045;-92
2022/03/28 05:53:15;;;;;;;18.65;11.07;;;;;;;9.62;69.48;100533.88;4901084;29;20024;-91
2022/03/28 05:55:41;;;;;;;18.15;12.02;;;;;;;9.55;69.54;100540.66;4919193;29;20359;-92
2022/03/28 05:58:08;;;;;;;17.77;10.88;;;;;;;9.52;69.95;100545.38;4903670;29;20086;-92
2022/03/28 06:00:34;;;;;;;16.75;11.43;;;;;;;9.50;70.19;100549.97;4903459;29;20507;-92
2022/03/28 06:03:00;;;;;;;18.45;11.20;;;;;;;9.45;70.65;100542.28;4934986;29;20051;-92
2022/03/28 06:05:25;;;;;;;19.63;11.60;;;;;;;9.45;70.86;100542.28;4903411;29;20491;-92
2022/03/28 06:07:53;;;;;;;18.60;11.68;;;;;;;9.58;70.96;100534.22;4912744;29;20034;-91
2022/03/28 06:10:18;;;;;;;18.35;11.43;;;;;;;9.57;70.92;100543.19;4911537;29;20095;-92
2022/03/28 06:12:43;;;;;;;19.42;11.70;;;;;;;9.63;70.09;100548.91;4900576;29;20122;-93
2022/03/28 06:15:09;;;;;;;18.13;11.27;;;;;;;9.70;70.47;100546.63;4901891;29;20405;-92
2022/03/28 06:17:35;;;;;;;17.38;11.20;;;;;;;9.69;70.60;100540.44;4900458;29;20032;-92
2022/03/28 06:20:04;;;;;;;16.27;11.73;;;;;;;9.69;70.88;100536.91;4899924;29;20035;-91
2022/03/28 06:22:32;;;;;;;16.10;11.27;;;;;;;9.69;71.13;100545.78;4901917;29;20032;-91
2022/03/28 06:24:57;;;;;;;17.67;11.02;;;;;;;9.76;71.40;100540.81;4903737;29;20024;-91
2022/03/28 06:27:26;;;;;;;18.77;11.35;;;;;;;9.68;71.44;100544.06;4904268;29;20382;-91
2022/03/28 06:29:52;;;;;;;21.23;11.93;;;;;;;9.71;71.85;100533.16;4903846;29;20027;-91
2022/03/28 06:32:18;;;;;;;19.45;11.43;;;;;;;9.69;72.20;100540.44;4904112;29;20063;-91
2022/03/28 06:34:43;;;;;;;18.85;12.05;;;;;;;9.71;72.17;100525.16;4900411;29;20118;-93
2022/03/28 06:37:08;;;;;;;17.02;11.13;;;;;;;9.72;72.62;100532.19;4906316;29;20047;-92
2022/03/28 06:39:36;;;;;;;19.50;12.80;;;;;;;9.77;72.96;100535.34;4904921;29;20028;-93
2022/03/28 06:42:03;;;;;;;19.55;12.32;;;;;;;9.76;73.66;100532.78;4910878;29;20167;-90
2022/03/28 06:44:29;;;;;;;18.55;12.05;;;;;;;9.78;73.34;100539.72;4918295;29;20132;-91
2022/03/28 06:46:55;;;;;;;18.17;11.32;;;;;;;9.80;73.40;100531.59;4913985;29;20122;-93
2022/03/28 06:49:21;;;;;;;20.77;12.48;;;;;;;9.78;73.95;100523.69;4903672;29;20036;-91
2022/03/28 06:51:46;;;;;;;19.63;11.88;;;;;;;9.82;74.06;100526.13;4903663;29;20036;-91
2022/03/28 06:54:14;;;;;;;19.75;12.48;;;;;;;9.80;74.69;100531.59;4904247;29;20024;-91
2022/03/28 06:56:41;;;;;;;21.48;12.18;;;;;;;9.84;74.52;100530.38;4903892;29;20371;-91
2022/03/28 06:59:08;;;;;;;19.80;13.20;;;;;;;9.87;74.63;100526.63;4904184;29;20034;-91
2022/03/28 07:01:35;;;;;;;20.92;12.70;;;;;;;9.85;74.81;100532.09;4908744;29;20034;-90
2022/03/28 07:04:02;;;;;;;20.58;13.02;;;;;;;9.90;74.65;100531.72;4919911;29;20034;-91
2022/03/28 07:06:27;;;;;;;21.10;13.13;;;;;;;9.92;75.23;100530.63;4919248;29;20042;-90
2022/03/28 07:08:53;;;;;;;20.20;12.95;;;;;;;9.98;76.33;100519.50;4918134;29;20095;-90
2022/03/28 07:11:19;;;;;;;21.40;13.43;;;;;;;10.04;76.17;100526.19;4911304;29;20035;-92
2022/03/28 07:13:44;;;;;;;21.23;14.63;;;;;;;10.08;76.90;100516.94;4903353;29;20027;-92
2022/03/28 07:16:10;;;;;;;22.23;14.95;;;;;;;10.10;76.94;100507.84;4903568;29;20031;-92
2022/03/28 07:18:36;;;;;;;22.38;14.93;;;;;;;10.18;77.05;100509.91;4903494;29;20028;-91
2022/03/28 07:21:02;;;;;;;23.48;15.02;;;;;;;10.23;77.52;100517.59;4904063;29;20042;-91
2022/03/28 07:23:27;;;;;;;22.30;15.27;;;;;;;10.28;77.76;100510.03;4903393;29;20035;-92
2022/03/28 07:25:56;;;;;;;25.52;16.52;;;;;;;10.35;77.46;100513.94;4903068;29;20059;-92
2022/03/28 07:28:21;;;;;;;25.63;17.98;;;;;;;10.42;77.97;100511.63;4903191;29;20098;-91
2022/03/28 07:30:47;;;;;;;32.83;20.40;;;;;;;10.45;78.74;100512.25;4902900;29;20541;-91
2022/03/28 07:33:15;;;;;;;33.13;20.67;;;;;;;10.48;78.99;100506.66;4902797;29;20055;-92
2022/03/28 07:35:45;;;;;;;28.33;18.35;;;;;;;10.52;80.21;100507.25;4905232;29;20024;-92
2022/03/28 07:38:11;;;;;;;28.63;17.55;;;;;;;10.52;80.61;100499.22;4904830;29;20512;-91
2022/03/28 07:40:40;;;;;;;25.35;18.13;;;;;;;10.52;81.03;100494.72;4906908;29;20027;-91
2022/03/28 07:43:07;;;;;;;28.17;19.48;;;;;;;10.55;81.12;100498.97;4904557;29;20028;-91
2022/03/28 07:45:36;;;;;;;28.40;17.95;;;;;;;10.55;81.55;100494.47;4904736;29;20032;-91
2022/03/28 07:48:07;;;;;;;25.17;17.88;;;;;;;10.59;81.41;100490.56;4906605;29;20035;-92
2022/03/28 07:50:34;;;;;;;26.40;18.45;;;;;;;10.63;81.56;100485.81;4905757;29;20035;-91
2022/03/28 07:53:00;;;;;;;27.77;18.50;;;;;;;10.71;81.71;100491.38;4905527;29;20069;-91
2022/03/28 07:55:27;;;;;;;29.20;19.35;;;;;;;10.76;81.51;100486.50;4906636;29;20023;-91
2022/03/28 07:57:53;;;;;;;26.33;19.23;;;;;;;10.79;81.64;100480.91;4908994;29;20473;-91
2022/03/28 08:00:19;;;;;;;29.25;19.05;;;;;;;10.81;81.04;100472.75;4911696;29;20067;-92
2022/03/28 08:02:45;;;;;;;26.20;18.00;;;;;;;10.82;81.75;100475.31;4914091;29;20027;-91
2022/03/28 08:05:11;;;;;;;27.23;19.45;;;;;;;10.84;81.61;100478.69;4907549;29;20028;-91
2022/03/28 08:07:38;;;;;;;24.83;18.65;;;;;;;10.86;82.24;100475.91;4907562;29;20027;-91
2022/03/28 08:10:09;;;;;;;27.50;19.05;;;;;;;10.89;82.01;100479.19;4907029;29;20464;-91
2022/03/28 08:12:37;;;;;;;28.50;19.70;;;;;;;10.89;82.27;100476.53;4908012;29;20565;-91
2022/03/28 08:15:06;;;;;;;27.23;18.80;;;;;;;10.92;82.84;100475.41;4907467;29;20020;-92
2022/03/28 08:17:34;;;;;;;27.70;19.33;;;;;;;10.95;83.07;100470.66;4907384;29;20461;-91
2022/03/28 08:20:00;;;;;;;29.33;19.33;;;;;;;10.96;82.66;100467.00;4906967;29;20032;-91
2022/03/28 08:22:26;;;;;;;28.17;18.67;;;;;;;11.01;82.04;100469.31;4907136;29;20397;-91
2022/03/28 08:24:51;;;;;;;29.90;19.73;;;;;;;11.03;82.53;100465.50;4906904;29;20024;-92
2022/03/28 08:27:27;;;;;;;25.52;19.08;;;;;;;11.05;82.38;100468.06;4907496;29;20079;-92
2022/03/28 08:29:53;;;;;;;25.92;18.67;;;;;;;11.08;82.34;100461.59;4907143;29;20031;-92
2022/03/28 08:32:21;;;;;;;25.60;18.45;;;;;;;11.09;82.06;100466.81;4906740;29;20030;-91
2022/03/28 08:34:48;;;;;;;25.90;19.02;;;;;;;11.12;82.19;100452.34;4906774;29;20027;-91
2022/03/28 08:37:17;;;;;;;25.10;16.92;;;;;;;11.11;82.23;100464.03;4908446;29;20138;-91
2022/03/28 08:39:44;;;;;;;25.15;17.50;;;;;;;11.12;82.33;100458.53;4908138;29;20024;-93
2022/03/28 08:42:12;;;;;;;26.10;18.00;;;;;;;11.17;82.21;100453.66;4908040;29;20520;-91
2022/03/28 08:44:41;;;;;;;24.02;16.77;;;;;;;11.21;81.92;100455.09;4907703;29;20034;-92
2022/03/28 08:47:10;;;;;;;24.50;17.38;;;;;;;11.26;82.22;100450.19;4906806;29;20106;-92
2022/03/28 08:49:36;;;;;;;;;;;;;;;11.27;81.83;100446.53;4906109;29;20031;-92
2022/03/28 08:52:03;;;;;;;24.08;17.17;;;;;;;11.30;81.50;100448.09;4905112;29;19997;-92
2022/03/28 08:54:28;;;;;;;24.85;17.48;;;;;;;11.31;81.46;100442.59;4904925;29;20043;-91
2022/03/28 08:56:54;;;;;;;23.38;16.88;;;;;;;11.32;81.49;100446.97;4905064;29;20482;-92
2022/03/28 08:59:19;;;;;;;25.95;17.27;;;;;;;11.34;81.58;100445.03;4905533;29;20126;-91
2022/03/28 09:01:45;;;;;;;25.05;17.45;;;;;;;11.38;81.40;100447.47;4904982;29;20114;-91
2022/03/28 09:04:11;;;;;;;25.13;17.60;;;;;;;11.40;81.34;100446.34;4905119;29;20087;-92
2022/03/28 09:06:38;;;;;;;24.52;16.75;;;;;;;11.44;81.18;100444.25;4904510;29;20036;-92
2022/03/28 09:09:19;;;;;;;22.90;16.20;;;;;;;11.46;81.63;100444.97;4905146;29;20024;-92
2022/03/28 09:11:47;;;;;;;22.67;16.40;;;;;;;11.47;81.35;100442.16;4920289;29;20035;-92
2022/03/28 09:14:14;;;;;;;22.57;15.40;;;;;;;11.50;80.68;100433.88;4904640;29;20384;-92
2022/03/28 09:16:40;;;;;;;24.40;17.00;;;;;;;11.51;80.79;100432.88;4906031;29;20765;-92
2022/03/28 09:19:10;;;;;;;23.70;16.38;;;;;;;11.54;80.31;100429.09;4904623;29;20024;-92
2022/03/28 09:21:36;;;;;;;21.60;16.25;;;;;;;11.52;80.57;100423.03;4905379;29;20058;-92
2022/03/28 09:24:04;;;;;;;21.48;15.35;;;;;;;11.54;80.32;100421.06;4904413;29;20019;-92
2022/03/28 09:26:30;;;;;;;21.40;15.43;;;;;;;11.58;80.00;100420.66;4904454;29;20047;-91
2022/03/28 09:28:58;;;;;;;23.58;16.73;;;;;;;11.63;79.22;100417.59;4920551;29;20058;-92
2022/03/28 09:31:50;;;;;;;22.60;15.95;;;;;;;11.61;78.98;100423.06;4905009;29;20057;-92
2022/03/28 09:34:19;;;;;;;24.83;15.68;;;;;;;11.64;78.38;100419.28;4889538;29;20032;-91
2022/03/28 09:36:49;;;;;;;22.45;15.13;;;;;;;11.65;77.42;100413.78;4889547;29;20103;-92
2022/03/28 09:39:32;;;;;;;19.85;14.45;;;;;;;11.65;77.99;100408.44;4922013;29;20026;-91
2022/03/28 09:42:08;;;;;;;22.08;15.25;;;;;;;11.70;77.53;100404.50;4907944;29;20023;-92
2022/03/28 09:44:35;;;;;;;22.17;15.27;;;;;;;11.70;77.87;100405.34;4904785;29;20641;-92
2022/03/28 09:47:08;;;;;;;25.33;17.67;;;;;;;11.80;77.43;100397.38;4928790;29;20058;-92
2022/03/28 09:49:35;;;;;;;24.95;16.60;;;;;;;11.77;77.73;100401.13;4906272;29;20517;-91
2022/03/28 09:52:17;;;;;;;25.35;16.65;;;;;;;11.78;77.31;100396.66;4908260;29;20118;-93
2022/03/28 09:54:54;;;;;;;25.55;16.17;;;;;;;11.83;77.28;100389.09;4912685;28;20023;-90
2022/03/28 09:57:31;;;;;;;23.20;15.82;;;;;;;11.87;76.67;100396.72;4923443;28;20012;-91
2022/03/28 10:00:09;;;;;;;23.33;15.38;;;;;;;11.94;75.40;100392.53;4941775;29;20038;-90
2022/03/28 10:02:37;;;;;;;22.77;15.20;;;;;;;11.92;74.53;100383.78;4909962;29;20043;-93
2022/03/28 10:05:03;;;;;;;23.90;15.43;;;;;;;11.94;75.45;100375.59;4909472;29;20414;-93
2022/03/28 10:07:30;;;;;;;24.40;16.27;;;;;;;11.98;74.42;100372.50;4907547;29;20039;-93
2022/03/28 10:09:56;;;;;;;25.88;16.00;;;;;;;12.04;74.68;100380.97;4907438;29;20038;-93
2022/03/28 10:12:22;;;;;;;25.38;16.73;;;;;;;12.05;74.19;100372.81;4906790;29;20035;-93
2022/03/28 10:14:51;;;;;;;23.20;15.73;;;;;;;12.03;74.48;100373.91;4905825;29;20087;-92
2022/03/28 10:17:17;;;;;;;25.08;16.98;;;;;;;12.09;74.70;100371.53;4907290;29;20287;-93
2022/03/28 10:19:43;;;;;;;25.17;16.60;;;;;;;12.10;74.40;100362.50;4907836;29;20042;-93
2022/03/28 10:22:12;;;;;;;24.15;16.25;;;;;;;12.08;74.09;100367.16;4906672;29;20024;-92
2022/03/28 10:24:41;;;;;;;25.08;16.45;;;;;;;12.17;73.84;100363.66;4905855;29;20090;-92
2022/03/28 10:27:06;;;;;;;25.55;16.15;;;;;;;12.20;73.30;100357.16;4908287;29;20031;-93
2022/03/28 10:29:40;;;;;;;20.80;14.43;;;;;;;12.14;73.57;100355.03;4906296;29;20405;-92
2022/03/28 10:32:07;;;;;;;23.48;15.70;;;;;;;12.13;73.94;100351.50;4908223;29;20034;-93
2022/03/28 10:34:39;;;;;;;26.63;15.85;;;;;;;12.14;73.87;100353.19;4930493;29;20031;-92
2022/03/28 10:37:23;;;;;;;24.67;16.00;;;;;;;12.15;74.34;100343.31;4924745;29;20052;-93
2022/03/28 10:39:49;;;;;;;21.10;14.80;;;;;;;12.16;74.20;100339.66;4937798;29;20028;-93
2022/03/28 10:42:23;;;;;;;28.10;17.13;;;;;;;12.25;73.70;100346.88;4905688;29;20055;-93
2022/03/28 10:45:21;;;;;;;26.05;15.82;;;;;;;12.31;73.18;100338.28;4906012;29;20054;-93
2022/03/28 10:47:56;;;;;;;25.48;16.38;;;;;;;12.40;72.54;100341.97;4863046;29;20039;-92
2022/03/28 10:50:28;;;;;;;25.33;15.82;;;;;;;12.33;72.70;100339.00;4904999;29;20031;-91
2022/03/28 10:53:16;;;;;;;25.08;16.25;;;;;;;12.29;72.60;100337.56;4884926;29;20036;-91
2022/03/28 10:55:49;;;;;;;;;;;;;;;12.28;73.09;100336.72;4903476;29;20141;-92
2022/03/28 10:58:30;;;;;;;26.35;16.85;;;;;;;12.42;72.62;100327.44;4905921;29;20386;-91
2022/03/28 11:01:08;;;;;;;23.48;15.63;;;;;;;12.36;72.85;100327.16;4902431;29;20036;-91
2022/03/28 11:03:35;;;;;;;25.13;15.95;;;;;;;12.35;73.35;100330.81;4902244;29;20024;-91
2022/03/28 11:06:02;;;;;;;23.30;16.15;;;;;;;12.40;72.78;100315.16;4885827;29;20084;-91
2022/03/28 11:08:38;;;;;;;22.58;15.00;;;;;;;12.37;73.22;100321.63;4886019;29;20545;-92
2022/03/28 11:11:16;;;;;;;21.67;14.45;;;;;;;12.39;73.62;100319.66;4885784;29;20062;-91